sensor_id;sensor_type;location;lat;lon;timestamp;pressure;altitude;pressure_sealevel;temperature;humidity
34482;BME280;20720;48.886;9.388;2023-08-08T00:01:37;98534.09;;;18.20;93.57
34482;BME280;20720;48.886;9.388;2023-08-08T00:04:02;98528.28;;;18.07;95.46
34482;BME280;20720;48.886;9.388;2023-08-08T00:06:28;98534.97;;;18.26;93.56
34482;BME280;20720;48.886;9.388;2023-08-08T00:08:53;98526.25;;;18.30;93.58
34482;BME280;20720;48.886;9.388;2023-08-08T00:11:18;98530.06;;;18.18;95.09
34482;BME280;20720;48.886;9.388;2023-08-08T00:13:45;98528.53;;;18.22;94.60
34482;BME280;20720;48.886;9.388;2023-08-08T00:16:10;98525.28;;;18.53;93.58
34482;BME280;20720;48.886;9.388;2023-08-08T00:18:35;98531.00;;;18.28;94.00
34482;BME280;20720;48.886;9.388;2023-08-08T00:21:01;98530.34;;;18.38;93.45
34482;BME280;20720;48.886;9.388;2023-08-08T00:23:26;98521.50;;;18.87;89.93
34482;BME280;20720;48.886;9.388;2023-08-08T00:25:51;98531.59;;;18.85;91.30
34482;BME280;20720;48.886;9.388;2023-08-08T00:28:17;98522.09;;;18.18;94.34
34482;BME280;20720;48.886;9.388;2023-08-08T00:30:43;98531.44;;;18.37;94.49
34482;BME280;20720;48.886;9.388;2023-08-08T00:33:08;98524.16;;;18.87;90.13
34482;BME280;20720;48.886;9.388;2023-08-08T00:35:34;98528.44;;;18.88;89.82
34482;BME280;20720;48.886;9.388;2023-08-08T00:37:59;98524.72;;;18.89;90.33
34482;BME280;20720;48.886;9.388;2023-08-08T00:40:24;98520.31;;;18.78;91.41
34482;BME280;20720;48.886;9.388;2023-08-08T00:42:49;98517.25;;;18.31;94.67
34482;BME280;20720;48.886;9.388;2023-08-08T00:45:15;98514.06;;;18.89;90.10
34482;BME280;20720;48.886;9.388;2023-08-08T00:47:40;98523.38;;;18.32;93.04
34482;BME280;20720;48.886;9.388;2023-08-08T00:50:06;98514.91;;;17.85;97.58
34482;BME280;20720;48.886;9.388;2023-08-08T00:52:31;98519.16;;;18.36;95.38
34482;BME280;20720;48.886;9.388;2023-08-08T00:54:57;98521.81;;;18.36;94.69
34482;BME280;20720;48.886;9.388;2023-08-08T00:57:23;98516.59;;;17.74;98.46
34482;BME280;20720;48.886;9.388;2023-08-08T00:59:48;98511.19;;;17.69;99.22
34482;BME280;20720;48.886;9.388;2023-08-08T01:02:13;98505.97;;;17.91;98.22
34482;BME280;20720;48.886;9.388;2023-08-08T01:04:39;98501.06;;;18.16;97.39
34482;BME280;20720;48.886;9.388;2023-08-08T01:07:30;98502.09;;;18.48;95.13
34482;BME280;20720;48.886;9.388;2023-08-08T01:10:20;98500.75;;;18.67;92.17
34482;BME280;20720;48.886;9.388;2023-08-08T01:12:54;98509.00;;;18.66;92.28
34482;BME280;20720;48.886;9.388;2023-08-08T01:15:21;98507.81;;;18.78;92.11
34482;BME280;20720;48.886;9.388;2023-08-08T01:17:47;98509.00;;;18.49;95.65
34482;BME280;20720;48.886;9.388;2023-08-08T01:20:14;98506.75;;;18.58;93.23
34482;BME280;20720;48.886;9.388;2023-08-08T01:23:24;98506.44;;;18.54;94.19
34482;BME280;20720;48.886;9.388;2023-08-08T01:25:51;98502.47;;;19.00;91.17
34482;BME280;20720;48.886;9.388;2023-08-08T01:28:21;98498.34;;;18.66;93.34
34482;BME280;20720;48.886;9.388;2023-08-08T01:30:47;98505.94;;;18.41;96.18
34482;BME280;20720;48.886;9.388;2023-08-08T01:33:12;98496.22;;;18.68;93.76
34482;BME280;20720;48.886;9.388;2023-08-08T01:35:39;98498.13;;;18.34;95.61
34482;BME280;20720;48.886;9.388;2023-08-08T01:40:35;98492.53;;;18.69;94.99
34482;BME280;20720;48.886;9.388;2023-08-08T01:43:01;98494.88;;;18.87;95.48
34482;BME280;20720;48.886;9.388;2023-08-08T01:45:29;98488.69;;;18.60;93.13
34482;BME280;20720;48.886;9.388;2023-08-08T01:47:54;98488.91;;;18.58;100.00
34482;BME280;20720;48.886;9.388;2023-08-08T01:50:19;98498.06;;;18.46;94.41
34482;BME280;20720;48.886;9.388;2023-08-08T01:52:46;98496.75;;;18.87;92.83
34482;BME280;20720;48.886;9.388;2023-08-08T01:55:11;98491.50;;;19.18;89.07
34482;BME280;20720;48.886;9.388;2023-08-08T01:57:37;98487.56;;;19.21;89.32
34482;BME280;20720;48.886;9.388;2023-08-08T02:00:02;98481.94;;;18.74;95.34
34482;BME280;20720;48.886;9.388;2023-08-08T02:02:29;98476.94;;;18.39;100.00
34482;BME280;20720;48.886;9.388;2023-08-08T02:04:54;98479.19;;;18.31;100.00
34482;BME280;20720;48.886;9.388;2023-08-08T02:07:20;98476.00;;;18.89;98.20
34482;BME280;20720;48.886;9.388;2023-08-08T02:09:45;98467.50;;;18.70;96.09
34482;BME280;20720;48.886;9.388;2023-08-08T02:12:11;98472.75;;;18.65;95.82
34482;BME280;20720;48.886;9.388;2023-08-08T02:14:37;98481.78;;;18.26;100.00
34482;BME280;20720;48.886;9.388;2023-08-08T02:17:02;98467.88;;;18.57;95.12
34482;BME280;20720;48.886;9.388;2023-08-08T02:19:27;98463.19;;;18.64;94.87
34482;BME280;20720;48.886;9.388;2023-08-08T02:21:53;98468.66;;;19.22;90.95
34482;BME280;20720;48.886;9.388;2023-08-08T02:24:18;98473.50;;;19.04;89.88
34482;BME280;20720;48.886;9.388;2023-08-08T02:26:43;98473.25;;;19.05;90.89
34482;BME280;20720;48.886;9.388;2023-08-08T02:29:08;98465.81;;;18.42;95.29
34482;BME280;20720;48.886;9.388;2023-08-08T02:31:34;98482.13;;;18.13;97.04
34482;BME280;20720;48.886;9.388;2023-08-08T02:33:59;98480.75;;;18.65;93.13
34482;BME280;20720;48.886;9.388;2023-08-08T02:36:24;98479.63;;;18.61;95.65
34482;BME280;20720;48.886;9.388;2023-08-08T02:38:49;98470.72;;;18.94;93.15
34482;BME280;20720;48.886;9.388;2023-08-08T02:41:18;98466.97;;;19.16;90.09
34482;BME280;20720;48.886;9.388;2023-08-08T02:43:43;98474.91;;;18.68;94.04
34482;BME280;20720;48.886;9.388;2023-08-08T02:46:09;98465.66;;;18.49;94.76
34482;BME280;20720;48.886;9.388;2023-08-08T02:48:34;98469.13;;;18.71;92.62
34482;BME280;20720;48.886;9.388;2023-08-08T02:50:59;98477.72;;;19.00;92.56
34482;BME280;20720;48.886;9.388;2023-08-08T02:53:24;98480.44;;;18.83;93.65
34482;BME280;20720;48.886;9.388;2023-08-08T02:55:50;98470.53;;;18.57;94.91
34482;BME280;20720;48.886;9.388;2023-08-08T02:58:15;98468.94;;;18.23;97.82
34482;BME280;20720;48.886;9.388;2023-08-08T03:00:40;98470.16;;;18.70;94.31
34482;BME280;20720;48.886;9.388;2023-08-08T03:03:05;98475.44;;;18.65;94.69
34482;BME280;20720;48.886;9.388;2023-08-08T03:05:31;98471.06;;;19.02;91.55
34482;BME280;20720;48.886;9.388;2023-08-08T03:07:56;98467.50;;;18.48;95.88
34482;BME280;20720;48.886;9.388;2023-08-08T03:10:21;98476.88;;;18.18;100.00
34482;BME280;20720;48.886;9.388;2023-08-08T03:12:47;98470.91;;;18.65;96.55
34482;BME280;20720;48.886;9.388;2023-08-08T03:15:12;98473.16;;;18.02;100.00
34482;BME280;20720;48.886;9.388;2023-08-08T03:17:37;98473.81;;;18.26;100.00
34482;BME280;20720;48.886;9.388;2023-08-08T03:20:03;98467.25;;;18.33;99.54
34482;BME280;20720;48.886;9.388;2023-08-08T03:22:31;98473.81;;;18.26;100.00
34482;BME280;20720;48.886;9.388;2023-08-08T03:24:56;98463.69;;;17.90;100.00
34482;BME280;20720;48.886;9.388;2023-08-08T03:27:21;98461.03;;;17.90;100.00
34482;BME280;20720;48.886;9.388;2023-08-08T03:29:46;98463.25;;;17.64;100.00
34482;BME280;20720;48.886;9.388;2023-08-08T03:32:12;98461.88;;;17.62;100.00
34482;BME280;20720;48.886;9.388;2023-08-08T03:34:37;98462.00;;;17.39;100.00
34482;BME280;20720;48.886;9.388;2023-08-08T03:37:02;98465.28;;;17.29;100.00
34482;BME280;20720;48.886;9.388;2023-08-08T03:39:28;98456.59;;;17.34;100.00
34482;BME280;20720;48.886;9.388;2023-08-08T03:41:53;98457.31;;;16.73;100.00
34482;BME280;20720;48.886;9.388;2023-08-08T03:44:18;98459.59;;;17.09;100.00
34482;BME280;20720;48.886;9.388;2023-08-08T03:46:44;98458.06;;;16.85;100.00
34482;BME280;20720;48.886;9.388;2023-08-08T03:49:09;98448.91;;;16.53;100.00
34482;BME280;20720;48.886;9.388;2023-08-08T03:51:34;98457.94;;;16.91;100.00
34482;BME280;20720;48.886;9.388;2023-08-08T03:54:00;98457.66;;;16.65;100.00
34482;BME280;20720;48.886;9.388;2023-08-08T03:56:25;98456.13;;;16.80;100.00
34482;BME280;20720;48.886;9.388;2023-08-08T03:58:52;98452.34;;;16.65;100.00
34482;BME280;20720;48.886;9.388;2023-08-08T04:01:17;98445.66;;;16.62;100.00
34482;BME280;20720;48.886;9.388;2023-08-08T04:03:42;98452.78;;;16.73;100.00
34482;BME280;20720;48.886;9.388;2023-08-08T04:06:07;98442.19;;;16.62;100.00
34482;BME280;20720;48.886;9.388;2023-08-08T04:08:33;98446.25;;;16.64;100.00
34482;BME280;20720;48.886;9.388;2023-08-08T04:10:58;98454.41;;;16.74;100.00
34482;BME280;20720;48.886;9.388;2023-08-08T04:13:23;98454.94;;;16.88;100.00
34482;BME280;20720;48.886;9.388;2023-08-08T04:15:48;98449.16;;;16.91;100.00
34482;BME280;20720;48.886;9.388;2023-08-08T04:18:16;98455.56;;;17.07;100.00
34482;BME280;20720;48.886;9.388;2023-08-08T04:20:42;98463.09;;;16.98;100.00
34482;BME280;20720;48.886;9.388;2023-08-08T04:23:07;98454.56;;;16.96;100.00
34482;BME280;20720;48.886;9.388;2023-08-08T04:25:32;98448.25;;;16.85;100.00
34482;BME280;20720;48.886;9.388;2023-08-08T04:27:57;98451.03;;;17.07;100.00
34482;BME280;20720;48.886;9.388;2023-08-08T04:30:23;98447.94;;;17.10;100.00
34482;BME280;20720;48.886;9.388;2023-08-08T04:32:48;98458.25;;;17.51;100.00
34482;BME280;20720;48.886;9.388;2023-08-08T04:35:14;98452.31;;;17.33;100.00
34482;BME280;20720;48.886;9.388;2023-08-08T04:37:39;98457.47;;;17.39;100.00
34482;BME280;20720;48.886;9.388;2023-08-08T04:40:05;98461.16;;;17.50;100.00
34482;BME280;20720;48.886;9.388;2023-08-08T04:42:32;98464.78;;;17.32;100.00
34482;BME280;20720;48.886;9.388;2023-08-08T04:44:57;98463.25;;;17.48;100.00
34482;BME280;20720;48.886;9.388;2023-08-08T04:47:23;98459.66;;;17.42;100.00
34482;BME280;20720;48.886;9.388;2023-08-08T04:49:48;98455.13;;;17.26;100.00
34482;BME280;20720;48.886;9.388;2023-08-08T04:52:13;98463.91;;;17.55;100.00
34482;BME280;20720;48.886;9.388;2023-08-08T04:54:39;98463.50;;;17.63;100.00
34482;BME280;20720;48.886;9.388;2023-08-08T04:57:04;98468.31;;;17.49;100.00
34482;BME280;20720;48.886;9.388;2023-08-08T04:59:29;98470.41;;;18.14;100.00
34482;BME280;20720;48.886;9.388;2023-08-08T05:01:55;98469.03;;;18.28;100.00
34482;BME280;20720;48.886;9.388;2023-08-08T05:04:20;98466.28;;;18.23;100.00
34482;BME280;20720;48.886;9.388;2023-08-08T05:06:45;98462.94;;;18.11;100.00
34482;BME280;20720;48.886;9.388;2023-08-08T05:09:11;98466.69;;;18.31;100.00
34482;BME280;20720;48.886;9.388;2023-08-08T05:11:36;98467.28;;;18.17;100.00
34482;BME280;20720;48.886;9.388;2023-08-08T05:14:02;98467.50;;;18.70;100.00
34482;BME280;20720;48.886;9.388;2023-08-08T05:16:27;98462.75;;;18.34;100.00
34482;BME280;20720;48.886;9.388;2023-08-08T05:18:53;98456.31;;;18.13;100.00
34482;BME280;20720;48.886;9.388;2023-08-08T05:21:21;98464.06;;;18.53;100.00
34482;BME280;20720;48.886;9.388;2023-08-08T05:23:46;98457.59;;;18.87;99.22
34482;BME280;20720;48.886;9.388;2023-08-08T05:26:11;98460.44;;;19.50;92.83
34482;BME280;20720;48.886;9.388;2023-08-08T05:28:37;98462.00;;;19.78;90.24
34482;BME280;20720;48.886;9.388;2023-08-08T05:31:02;98456.22;;;19.06;92.89
34482;BME280;20720;48.886;9.388;2023-08-08T05:33:27;98457.38;;;19.37;93.34
34482;BME280;20720;48.886;9.388;2023-08-08T05:35:52;98466.72;;;20.03;89.33
34482;BME280;20720;48.886;9.388;2023-08-08T05:38:18;98472.91;;;19.77;91.74
34482;BME280;20720;48.886;9.388;2023-08-08T05:40:43;98482.56;;;19.29;91.52
34482;BME280;20720;48.886;9.388;2023-08-08T05:43:08;98477.56;;;20.23;89.29
34482;BME280;20720;48.886;9.388;2023-08-08T05:45:34;98476.50;;;20.24;88.82
34482;BME280;20720;48.886;9.388;2023-08-08T05:47:59;98481.13;;;20.95;85.14
34482;BME280;20720;48.886;9.388;2023-08-08T05:50:26;98478.25;;;20.50;87.19
34482;BME280;20720;48.886;9.388;2023-08-08T05:52:52;98488.03;;;19.66;89.66
34482;BME280;20720;48.886;9.388;2023-08-08T05:55:17;98488.81;;;19.13;94.61
34482;BME280;20720;48.886;9.388;2023-08-08T05:57:42;98488.28;;;20.28;88.27
34482;BME280;20720;48.886;9.388;2023-08-08T06:00:08;98491.06;;;19.80;91.92
34482;BME280;20720;48.886;9.388;2023-08-08T06:02:36;98484.88;;;20.99;85.95
34482;BME280;20720;48.886;9.388;2023-08-08T06:05:02;98490.06;;;20.17;88.86
34482;BME280;20720;48.886;9.388;2023-08-08T06:07:27;98497.88;;;19.39;94.90
34482;BME280;20720;48.886;9.388;2023-08-08T06:09:52;98496.22;;;18.68;100.00
34482;BME280;20720;48.886;9.388;2023-08-08T06:12:18;98493.41;;;19.44;97.49
34482;BME280;20720;48.886;9.388;2023-08-08T06:14:43;98485.91;;;20.83;88.19
34482;BME280;20720;48.886;9.388;2023-08-08T06:17:08;98485.88;;;19.95;91.18
34482;BME280;20720;48.886;9.388;2023-08-08T06:19:34;98484.75;;;21.26;85.63
34482;BME280;20720;48.886;9.388;2023-08-08T06:21:59;98480.78;;;21.48;82.75
34482;BME280;20720;48.886;9.388;2023-08-08T06:24:25;98490.06;;;20.59;85.93
34482;BME280;20720;48.886;9.388;2023-08-08T06:26:50;98484.19;;;20.57;84.75
34482;BME280;20720;48.886;9.388;2023-08-08T06:29:15;98477.56;;;20.23;87.98
34482;BME280;20720;48.886;9.388;2023-08-08T06:31:40;98469.50;;;21.31;83.79
34482;BME280;20720;48.886;9.388;2023-08-08T06:34:06;98476.72;;;21.26;82.37
34482;BME280;20720;48.886;9.388;2023-08-08T06:36:31;98482.53;;;21.03;82.54
34482;BME280;20720;48.886;9.388;2023-08-08T06:38:57;98483.50;;;22.09;78.78
34482;BME280;20720;48.886;9.388;2023-08-08T06:41:22;98477.59;;;22.22;76.42
34482;BME280;20720;48.886;9.388;2023-08-08T06:43:47;98486.38;;;22.63;76.03
34482;BME280;20720;48.886;9.388;2023-08-08T06:46:12;98484.53;;;22.43;76.13
34482;BME280;20720;48.886;9.388;2023-08-08T06:48:44;98489.84;;;22.78;74.55
34482;BME280;20720;48.886;9.388;2023-08-08T06:51:10;98491.50;;;22.39;77.44
34482;BME280;20720;48.886;9.388;2023-08-08T06:53:36;98487.03;;;23.08;73.64
34482;BME280;20720;48.886;9.388;2023-08-08T06:56:01;98489.66;;;21.99;77.40
34482;BME280;20720;48.886;9.388;2023-08-08T06:58:26;98486.44;;;22.22;76.25
34482;BME280;20720;48.886;9.388;2023-08-08T07:00:52;98479.72;;;21.70;77.30
34482;BME280;20720;48.886;9.388;2023-08-08T07:03:17;98483.06;;;22.91;74.06
34482;BME280;20720;48.886;9.388;2023-08-08T07:05:42;98488.50;;;23.78;71.15
34482;BME280;20720;48.886;9.388;2023-08-08T07:08:07;98489.38;;;23.15;71.42
34482;BME280;20720;48.886;9.388;2023-08-08T07:10:34;98486.63;;;23.79;71.80
34482;BME280;20720;48.886;9.388;2023-08-08T07:13:00;98493.91;;;22.61;73.73
34482;BME280;20720;48.886;9.388;2023-08-08T07:15:25;98482.41;;;24.30;68.88
34482;BME280;20720;48.886;9.388;2023-08-08T07:17:51;98485.41;;;23.12;70.09
34482;BME280;20720;48.886;9.388;2023-08-08T07:20:16;98492.00;;;23.74;69.92
34482;BME280;20720;48.886;9.388;2023-08-08T07:22:43;98487.09;;;22.88;72.06
34482;BME280;20720;48.886;9.388;2023-08-08T07:25:08;98487.00;;;24.30;67.33
34482;BME280;20720;48.886;9.388;2023-08-08T07:27:34;98484.34;;;23.96;67.49
34482;BME280;20720;48.886;9.388;2023-08-08T07:29:59;98491.59;;;23.57;67.00
34482;BME280;20720;48.886;9.388;2023-08-08T07:32:26;98490.94;;;22.62;69.28
34482;BME280;20720;48.886;9.388;2023-08-08T07:34:51;98485.00;;;22.75;68.53
34482;BME280;20720;48.886;9.388;2023-08-08T07:37:16;98491.00;;;22.17;71.55
34482;BME280;20720;48.886;9.388;2023-08-08T07:39:41;98485.78;;;23.40;69.24
34482;BME280;20720;48.886;9.388;2023-08-08T07:42:07;98490.00;;;23.56;66.00
34482;BME280;20720;48.886;9.388;2023-08-08T07:44:32;98482.19;;;23.05;66.01
34482;BME280;20720;48.886;9.388;2023-08-08T07:46:59;98485.69;;;23.06;66.89
34482;BME280;20720;48.886;9.388;2023-08-08T07:49:25;98481.13;;;23.01;67.97
34482;BME280;20720;48.886;9.388;2023-08-08T07:51:50;98477.31;;;24.05;64.86
34482;BME280;20720;48.886;9.388;2023-08-08T07:54:15;98481.66;;;23.57;65.11
34482;BME280;20720;48.886;9.388;2023-08-08T07:56:40;98477.88;;;23.14;65.41
34482;BME280;20720;48.886;9.388;2023-08-08T07:59:07;98473.28;;;24.02;64.13
34482;BME280;20720;48.886;9.388;2023-08-08T08:01:34;98470.66;;;24.78;62.48
34482;BME280;20720;48.886;9.388;2023-08-08T08:03:59;98463.53;;;24.87;62.40
34482;BME280;20720;48.886;9.388;2023-08-08T08:06:25;98461.38;;;24.66;62.46
34482;BME280;20720;48.886;9.388;2023-08-08T08:08:50;98461.50;;;24.27;64.99
34482;BME280;20720;48.886;9.388;2023-08-08T08:11:15;98455.94;;;26.20;60.98
34482;BME280;20720;48.886;9.388;2023-08-08T08:13:41;98463.31;;;25.07;62.34
34482;BME280;20720;48.886;9.388;2023-08-08T08:16:07;98462.38;;;24.46;62.18
34482;BME280;20720;48.886;9.388;2023-08-08T08:18:33;98462.53;;;23.69;64.85
34482;BME280;20720;48.886;9.388;2023-08-08T08:20:58;98451.50;;;24.09;64.11
34482;BME280;20720;48.886;9.388;2023-08-08T08:23:24;98459.09;;;24.54;61.47
34482;BME280;20720;48.886;9.388;2023-08-08T08:25:49;98457.56;;;23.86;64.04
34482;BME280;20720;48.886;9.388;2023-08-08T08:28:15;98454.56;;;24.26;62.54
34482;BME280;20720;48.886;9.388;2023-08-08T08:30:41;98459.63;;;24.51;61.98
34482;BME280;20720;48.886;9.388;2023-08-08T08:33:06;98470.41;;;23.55;64.30
34482;BME280;20720;48.886;9.388;2023-08-08T08:35:33;98465.97;;;23.74;65.18
34482;BME280;20720;48.886;9.388;2023-08-08T08:37:59;98467.97;;;23.59;63.91
34482;BME280;20720;48.886;9.388;2023-08-08T08:40:24;98462.16;;;24.66;62.10
34482;BME280;20720;48.886;9.388;2023-08-08T08:42:50;98466.03;;;25.02;62.39
34482;BME280;20720;48.886;9.388;2023-08-08T08:45:18;98461.56;;;25.16;60.03
34482;BME280;20720;48.886;9.388;2023-08-08T08:47:46;98460.03;;;24.63;60.38
34482;BME280;20720;48.886;9.388;2023-08-08T08:50:13;98462.03;;;25.42;59.45
34482;BME280;20720;48.886;9.388;2023-08-08T08:52:39;98457.47;;;25.00;58.25
34482;BME280;20720;48.886;9.388;2023-08-08T08:55:05;98466.94;;;24.22;61.17
34482;BME280;20720;48.886;9.388;2023-08-08T08:57:32;98457.47;;;24.53;61.30
34482;BME280;20720;48.886;9.388;2023-08-08T08:59:58;98458.59;;;24.47;61.92
34482;BME280;20720;48.886;9.388;2023-08-08T09:02:24;98459.50;;;25.08;61.46
34482;BME280;20720;48.886;9.388;2023-08-08T09:04:49;98451.63;;;25.17;60.35
34482;BME280;20720;48.886;9.388;2023-08-08T09:07:16;98453.50;;;26.64;57.40
34482;BME280;20720;48.886;9.388;2023-08-08T09:09:43;98445.69;;;24.96;58.50
34482;BME280;20720;48.886;9.388;2023-08-08T09:12:09;98450.63;;;24.89;59.16
34482;BME280;20720;48.886;9.388;2023-08-08T09:14:40;98453.47;;;24.51;59.52
34482;BME280;20720;48.886;9.388;2023-08-08T09:17:10;98458.91;;;24.69;60.61
34482;BME280;20720;48.886;9.388;2023-08-08T09:19:36;98452.16;;;24.48;59.26
34482;BME280;20720;48.886;9.388;2023-08-08T09:22:01;98451.16;;;23.82;61.62
34482;BME280;20720;48.886;9.388;2023-08-08T09:24:26;98446.91;;;24.85;61.65
34482;BME280;20720;48.886;9.388;2023-08-08T09:26:52;98448.31;;;24.31;61.63
34482;BME280;20720;48.886;9.388;2023-08-08T09:29:17;98451.91;;;24.68;61.39
34482;BME280;20720;48.886;9.388;2023-08-08T09:31:42;98452.22;;;24.43;58.35
34482;BME280;20720;48.886;9.388;2023-08-08T09:34:08;98441.34;;;25.75;58.33
34482;BME280;20720;48.886;9.388;2023-08-08T09:36:33;98440.31;;;24.49;58.09
34482;BME280;20720;48.886;9.388;2023-08-08T09:39:00;98423.41;;;24.72;58.64
34482;BME280;20720;48.886;9.388;2023-08-08T09:41:25;98431.53;;;25.65;56.20
34482;BME280;20720;48.886;9.388;2023-08-08T09:43:52;98427.03;;;26.52;53.70
34482;BME280;20720;48.886;9.388;2023-08-08T09:46:19;98417.59;;;25.26;57.40
34482;BME280;20720;48.886;9.388;2023-08-08T09:48:44;98422.50;;;25.19;57.36
34482;BME280;20720;48.886;9.388;2023-08-08T09:51:10;98414.84;;;26.68;55.93
34482;BME280;20720;48.886;9.388;2023-08-08T09:53:36;98419.06;;;27.24;55.65
34482;BME280;20720;48.886;9.388;2023-08-08T09:56:04;98416.63;;;26.59;51.73
34482;BME280;20720;48.886;9.388;2023-08-08T09:58:30;98411.44;;;27.26;50.83
34482;BME280;20720;48.886;9.388;2023-08-08T10:00:55;98411.56;;;26.85;51.65
34482;BME280;20720;48.886;9.388;2023-08-08T10:03:22;98411.31;;;27.44;51.26
34482;BME280;20720;48.886;9.388;2023-08-08T10:05:47;98402.59;;;26.76;51.63
34482;BME280;20720;48.886;9.388;2023-08-08T10:08:14;98408.53;;;26.59;49.69
34482;BME280;20720;48.886;9.388;2023-08-08T10:10:41;98406.31;;;25.43;52.62
34482;BME280;20720;48.886;9.388;2023-08-08T10:13:08;98409.00;;;25.05;54.06
34482;BME280;20720;48.886;9.388;2023-08-08T10:15:37;98400.75;;;26.31;52.30
34482;BME280;20720;48.886;9.388;2023-08-08T10:18:02;98409.16;;;26.56;49.37
34482;BME280;20720;48.886;9.388;2023-08-08T10:20:31;98399.53;;;25.08;52.93
34482;BME280;20720;48.886;9.388;2023-08-08T10:22:57;98404.13;;;25.07;52.80
34482;BME280;20720;48.886;9.388;2023-08-08T10:25:24;98405.38;;;26.30;51.13
34482;BME280;20720;48.886;9.388;2023-08-08T10:28:11;98416.75;;;26.54;49.97
34482;BME280;20720;48.886;9.388;2023-08-08T10:36:05;98408.56;;;28.41;49.36
34482;BME280;20720;48.886;9.388;2023-08-08T10:38:40;98415.06;;;27.35;48.29
34482;BME280;20720;48.886;9.388;2023-08-08T10:41:12;98415.31;;;27.69;47.90
34482;BME280;20720;48.886;9.388;2023-08-08T10:43:38;98415.44;;;26.65;48.15
34482;BME280;20720;48.886;9.388;2023-08-08T10:46:04;98416.56;;;26.64;49.84
34482;BME280;20720;48.886;9.388;2023-08-08T10:48:30;98410.69;;;25.39;50.55
34482;BME280;20720;48.886;9.388;2023-08-08T10:50:57;98405.16;;;26.40;48.82
34482;BME280;20720;48.886;9.388;2023-08-08T10:53:25;98403.13;;;25.03;50.50
34482;BME280;20720;48.886;9.388;2023-08-08T10:56:02;98402.97;;;26.42;47.86
34482;BME280;20720;48.886;9.388;2023-08-08T10:58:38;98405.56;;;26.74;47.88
34482;BME280;20720;48.886;9.388;2023-08-08T11:01:04;98402.38;;;26.59;45.04
34482;BME280;20720;48.886;9.388;2023-08-08T11:03:35;98398.56;;;27.01;44.05
34482;BME280;20720;48.886;9.388;2023-08-08T11:06:02;98395.59;;;26.34;44.97
34482;BME280;20720;48.886;9.388;2023-08-08T11:08:29;98381.84;;;29.05;42.83
34482;BME280;20720;48.886;9.388;2023-08-08T11:10:55;98384.75;;;29.17;41.22
34482;BME280;20720;48.886;9.388;2023-08-08T11:13:21;98390.16;;;27.60;41.00
34482;BME280;20720;48.886;9.388;2023-08-08T11:15:46;98380.97;;;28.22;42.60
34482;BME280;20720;48.886;9.388;2023-08-08T11:18:13;98392.50;;;29.69;41.69
34482;BME280;20720;48.886;9.388;2023-08-08T11:20:38;98386.81;;;29.45;40.61
34482;BME280;20720;48.886;9.388;2023-08-08T11:23:04;98384.56;;;30.36;39.69
34482;BME280;20720;48.886;9.388;2023-08-08T11:25:35;98387.03;;;30.04;41.02
34482;BME280;20720;48.886;9.388;2023-08-08T11:28:01;98383.78;;;29.30;39.16
34482;BME280;20720;48.886;9.388;2023-08-08T11:30:32;98384.81;;;30.43;39.19
34482;BME280;20720;48.886;9.388;2023-08-08T11:32:59;98386.97;;;30.58;37.44
34482;BME280;20720;48.886;9.388;2023-08-08T11:35:25;98393.63;;;28.92;37.56
34482;BME280;20720;48.886;9.388;2023-08-08T11:37:53;98381.16;;;28.26;40.64
34482;BME280;20720;48.886;9.388;2023-08-08T11:40:19;98378.28;;;29.98;39.45
34482;BME280;20720;48.886;9.388;2023-08-08T11:42:45;98377.09;;;29.53;40.04
34482;BME280;20720;48.886;9.388;2023-08-08T11:45:12;98378.69;;;29.28;39.12
34482;BME280;20720;48.886;9.388;2023-08-08T11:47:39;98376.63;;;30.90;39.41
34482;BME280;20720;48.886;9.388;2023-08-08T11:50:06;98384.69;;;28.35;40.80
34482;BME280;20720;48.886;9.388;2023-08-08T11:52:32;98381.91;;;27.87;43.85
34482;BME280;20720;48.886;9.388;2023-08-08T11:54:59;98366.16;;;30.42;40.26
34482;BME280;20720;48.886;9.388;2023-08-08T11:57:27;98367.28;;;29.95;40.99
34482;BME280;20720;48.886;9.388;2023-08-08T11:59:53;98374.53;;;29.65;39.59
34482;BME280;20720;48.886;9.388;2023-08-08T12:02:19;98362.63;;;30.50;40.05
34482;BME280;20720;48.886;9.388;2023-08-08T12:04:45;98366.91;;;31.63;37.25
34482;BME280;20720;48.886;9.388;2023-08-08T12:07:11;98372.63;;;29.57;38.45
34482;BME280;20720;48.886;9.388;2023-08-08T12:09:37;98358.59;;;29.72;39.55
34482;BME280;20720;48.886;9.388;2023-08-08T12:12:03;98358.03;;;27.50;41.97
34482;BME280;20720;48.886;9.388;2023-08-08T12:14:29;98360.91;;;28.06;41.19
34482;BME280;20720;48.886;9.388;2023-08-08T12:16:55;98356.13;;;27.81;41.21
34482;BME280;20720;48.886;9.388;2023-08-08T12:19:24;98365.47;;;28.36;41.08
34482;BME280;20720;48.886;9.388;2023-08-08T12:21:51;98358.16;;;28.37;40.42
34482;BME280;20720;48.886;9.388;2023-08-08T12:24:17;98348.47;;;28.05;42.28
34482;BME280;20720;48.886;9.388;2023-08-08T12:26:43;98355.69;;;28.18;41.63
34482;BME280;20720;48.886;9.388;2023-08-08T12:29:08;98353.69;;;27.71;41.64
34482;BME280;20720;48.886;9.388;2023-08-08T12:31:33;98348.06;;;28.59;41.60
34482;BME280;20720;48.886;9.388;2023-08-08T12:33:59;98351.28;;;28.96;41.05
34482;BME280;20720;48.886;9.388;2023-08-08T12:36:25;98359.25;;;28.36;40.79
34482;BME280;20720;48.886;9.388;2023-08-08T12:38:50;98345.16;;;27.86;40.65
34482;BME280;20720;48.886;9.388;2023-08-08T12:41:15;98354.94;;;27.65;41.83
34482;BME280;20720;48.886;9.388;2023-08-08T12:43:41;98343.28;;;28.73;41.14
34482;BME280;20720;48.886;9.388;2023-08-08T12:46:06;98346.28;;;29.83;39.90
34482;BME280;20720;48.886;9.388;2023-08-08T12:48:31;98344.75;;;28.97;40.57
34482;BME280;20720;48.886;9.388;2023-08-08T12:50:56;98346.31;;;30.29;38.32
34482;BME280;20720;48.886;9.388;2023-08-08T12:53:22;98350.06;;;32.50;37.47
34482;BME280;20720;48.886;9.388;2023-08-08T12:55:47;98352.00;;;30.36;38.42
34482;BME280;20720;48.886;9.388;2023-08-08T12:58:12;98342.91;;;31.32;37.23
34482;BME280;20720;48.886;9.388;2023-08-08T13:00:37;98340.25;;;31.89;37.65